Time;durP1;ratioP1;P1;durP2;ratioP2;P2;SDS_P1;SDS_P2;PMS_P1;PMS_P2;Temp;Humidity;BMP_temperature;BMP_pressure;BME280_temperature;BME280_humidity;BME280_pressure;Samples;Min_cycle;Max_cycle;Signal;HPM_P1;HPM_P2
2021/04/17 00:01:17;;;;;;;29.35;14.05;;;;;;;3.00;83.77;98278.31;1826515;77;21035;-73
2021/04/17 00:03:43;;;;;;;32.10;17.62;;;;;;;2.99;83.62;98285.52;1826643;78;22095;-74
2021/04/17 00:06:10;;;;;;;37.00;18.05;;;;;;;2.96;83.76;98283.28;1826456;77;21027;-73
2021/04/17 00:08:36;;;;;;;29.70;14.00;;;;;;;2.98;83.87;98274.50;1826632;78;21530;-73
2021/04/17 00:11:03;;;;;;;24.95;12.55;;;;;;;3.01;84.06;98275.92;1826478;77;21133;-73
2021/04/17 00:13:29;;;;;;;24.45;13.32;;;;;;;2.97;83.94;98266.17;1826517;78;21046;-73
2021/04/17 00:15:55;;;;;;;34.73;16.40;;;;;;;3.00;84.17;98275.11;1826510;77;21188;-73
2021/04/17 00:18:21;;;;;;;25.05;14.50;;;;;;;2.96;84.11;98275.25;1826442;78;21412;-73
2021/04/17 00:20:48;;;;;;;30.80;15.23;;;;;;;2.99;84.18;98276.65;1826495;77;21412;-73
2021/04/17 00:23:16;;;;;;;24.37;12.88;;;;;;;3.00;84.23;98276.45;1826580;78;21111;-73
2021/04/17 00:25:42;;;;;;;25.20;13.95;;;;;;;3.00;84.13;98271.62;1826526;77;21126;-73
2021/04/17 00:28:09;;;;;;;39.30;20.20;;;;;;;2.98;84.20;98268.33;1826498;78;21301;-73
2021/04/17 00:30:35;;;;;;;27.05;14.38;;;;;;;2.97;84.18;98269.38;1826453;77;21062;-73
2021/04/17 00:33:01;;;;;;;26.10;14.90;;;;;;;2.96;83.89;98269.89;1826462;78;21023;-73
2021/04/17 00:35:28;;;;;;;25.60;13.32;;;;;;;2.92;83.99;98263.37;1826483;77;21145;-73
2021/04/17 00:37:54;;;;;;;25.82;12.13;;;;;;;2.90;84.01;98264.09;1826699;78;21489;-73
2021/04/17 00:40:20;;;;;;;25.25;13.00;;;;;;;2.91;83.90;98271.11;1826765;77;22242;-73
2021/04/17 00:42:46;;;;;;;29.07;14.78;;;;;;;2.92;83.96;98263.37;1826588;78;21156;-73
2021/04/17 00:45:13;;;;;;;27.42;13.88;;;;;;;2.92;83.91;98267.38;1826778;77;21129;-73
2021/04/17 00:47:41;;;;;;;19.73;9.63;;;;;;;2.93;84.00;98266.34;1826626;78;21421;-73
2021/04/17 00:50:09;;;;;;;16.82;8.45;;;;;;;2.98;84.19;98267.80;1826866;78;21058;-73
2021/04/17 00:52:35;;;;;;;18.15;8.65;;;;;;;3.00;84.26;98262.25;1794063;79;21136;-73
2021/04/17 00:55:02;;;;;;;17.70;9.33;;;;;;;2.96;84.33;98267.73;1799279;79;21538;-73
2021/04/17 00:57:28;;;;;;;27.20;12.15;;;;;;;2.86;84.48;98262.91;1799162;79;21047;-73
2021/04/17 00:59:54;;;;;;;19.90;11.50;;;;;;;2.84;84.49;98265.01;1799213;79;21146;-73
2021/04/17 01:02:29;;;;;;;18.42;11.48;;;;;;;2.84;84.45;98265.01;1799261;79;21417;-73
2021/04/17 01:04:55;;;;;;;19.10;10.45;;;;;;;2.83;84.33;98264.19;1799312;79;21206;-72
2021/04/17 01:07:26;;;;;;;22.42;10.60;;;;;;;2.81;84.27;98268.92;1799102;79;21139;-72
2021/04/17 01:10:09;;;;;;;17.25;8.85;;;;;;;2.79;84.13;98267.00;1799254;79;21523;-73
2021/04/17 01:12:39;;;;;;;15.53;9.40;;;;;;;2.83;84.09;98265.53;1799156;79;21106;-74
2021/04/17 01:15:07;;;;;;;14.13;7.90;;;;;;;2.86;84.05;98264.25;1770940;79;21106;-73
2021/04/17 01:17:33;;;;;;;13.05;8.48;;;;;;;2.92;84.20;98269.25;1799139;79;21201;-73
2021/04/17 01:20:17;;;;;;;12.75;7.50;;;;;;;2.98;84.28;98265.13;1799120;79;21158;-73
2021/04/17 01:23:10;;;;;;;13.85;9.18;;;;;;;3.02;84.30;98266.84;1798863;79;21115;-73
2021/04/17 01:26:04;;;;;;;14.95;8.13;;;;;;;3.09;84.34;98269.74;1798675;79;21051;-72
2021/04/17 01:28:35;;;;;;;17.70;11.63;;;;;;;3.13;84.36;98266.61;1799297;79;21023;-72
2021/04/17 01:31:01;;;;;;;25.12;12.68;;;;;;;3.15;84.21;98269.34;1798660;79;22047;-73
2021/04/17 01:33:32;;;;;;;25.55;15.60;;;;;;;3.08;83.97;98268.11;1772014;79;21055;-73
2021/04/17 01:35:58;;;;;;;19.92;11.08;;;;;;;3.04;83.94;98264.23;1772962;79;21079;-73
2021/04/17 01:38:27;;;;;;;16.67;9.98;;;;;;;2.98;83.79;98265.64;1799262;79;21151;-73
2021/04/17 01:41:00;;;;;;;16.77;10.18;;;;;;;2.93;83.90;98264.19;1799283;79;21114;-73
2021/04/17 01:43:28;;;;;;;28.38;12.47;;;;;;;2.90;83.74;98259.26;1799158;79;21465;-73
2021/04/17 01:45:58;;;;;;;29.57;13.75;;;;;;;2.88;83.70;98260.83;1799164;79;21091;-73
2021/04/17 01:48:25;;;;;;;24.00;11.45;;;;;;;2.85;83.84;98262.63;1772833;79;21099;-73
2021/04/17 01:50:52;;;;;;;17.60;10.13;;;;;;;2.85;84.02;98264.48;1758176;79;21150;-73
2021/04/17 01:53:22;;;;;;;26.95;10.55;;;;;;;2.82;84.06;98270.59;1799046;79;21079;-73
2021/04/17 01:55:48;;;;;;;23.20;12.73;;;;;;;2.82;84.13;98268.44;1799162;79;22053;-73
2021/04/17 01:58:19;;;;;;;24.72;10.80;;;;;;;2.81;84.17;98266.25;1799090;79;21102;-73
2021/04/17 02:00:45;;;;;;;22.22;11.45;;;;;;;2.82;84.25;98269.25;1799231;79;21115;-72
2021/04/17 02:03:12;;;;;;;17.55;8.78;;;;;;;2.85;84.34;98276.53;1799147;79;21118;-73
2021/04/17 02:05:38;;;;;;;19.20;10.28;;;;;;;2.86;84.36;98274.96;1799160;79;21019;-73
2021/04/17 02:08:04;;;;;;;20.17;9.28;;;;;;;2.81;84.26;98271.61;1799152;79;21197;-73
2021/04/17 02:10:31;;;;;;;36.03;16.50;;;;;;;2.78;84.41;98276.59;1799115;79;21258;-72
2021/04/17 02:12:57;;;;;;;40.20;23.12;;;;;;;2.75;84.34;98267.69;1799159;79;21127;-73
2021/04/17 02:15:23;;;;;;;39.78;32.00;;;;;;;2.76;84.32;98272.00;1799231;79;21122;-73
2021/04/17 02:17:59;;;;;;;28.35;22.48;;;;;;;2.74;84.26;98270.07;1799110;79;21016;-73
2021/04/17 02:20:42;;;;;;;21.17;18.23;;;;;;;2.72;84.21;98280.16;1799148;79;21192;-73
2021/04/17 02:23:11;;;;;;;21.42;17.50;;;;;;;2.71;84.08;98273.17;1798104;79;21054;-72
2021/04/17 02:25:37;;;;;;;22.82;18.20;;;;;;;2.68;84.23;98265.60;1799120;79;21063;-73
2021/04/17 02:28:05;;;;;;;21.90;13.60;;;;;;;2.70;84.15;98262.17;1799195;79;21508;-73
2021/04/17 02:30:32;;;;;;;14.45;10.13;;;;;;;2.70;84.22;98268.34;1799113;79;21187;-73
2021/04/17 02:32:58;;;;;;;21.65;16.62;;;;;;;2.73;84.25;98260.38;1745632;79;22257;-73
2021/04/17 02:35:25;;;;;;;15.83;10.05;;;;;;;2.74;84.33;98268.21;1799163;79;21142;-73
2021/04/17 02:37:51;;;;;;;13.65;9.83;;;;;;;2.74;84.35;98264.72;1799216;79;21035;-73
2021/04/17 02:40:17;;;;;;;16.35;12.33;;;;;;;2.73;84.30;98265.73;1799098;79;21139;-72
2021/04/17 02:42:43;;;;;;;18.50;14.75;;;;;;;2.73;84.43;98267.89;1799224;79;21472;-73
2021/04/17 02:45:10;;;;;;;15.40;13.75;;;;;;;2.73;84.48;98264.39;1799201;79;21204;-73
2021/04/17 02:47:36;;;;;;;35.03;16.70;;;;;;;2.72;84.41;98263.58;1799122;79;21433;-73
2021/04/17 02:50:04;;;;;;;22.95;12.75;;;;;;;2.70;84.27;98262.98;1799106;79;21244;-73
2021/04/17 02:52:30;;;;;;;27.62;17.27;;;;;;;2.63;84.25;98261.42;1792245;79;21191;-72
2021/04/17 02:54:56;;;;;;;31.30;20.62;;;;;;;2.56;84.37;98258.81;1743488;82;21084;-73
2021/04/17 02:57:22;;;;;;;21.05;11.88;;;;;;;2.46;84.36;98258.52;1743488;81;21203;-73
2021/04/17 02:59:49;;;;;;;17.62;10.58;;;;;;;2.45;84.47;98256.36;1743341;82;21112;-73
2021/04/17 03:02:15;;;;;;;17.20;9.38;;;;;;;2.46;84.72;98259.33;1743400;81;21128;-73
2021/04/17 03:04:41;;;;;;;25.60;15.93;;;;;;;2.51;84.73;98260.84;1743417;82;21164;-72
2021/04/17 03:07:07;;;;;;;18.87;11.73;;;;;;;2.56;84.71;98254.80;1716692;82;21037;-73
2021/04/17 03:09:33;;;;;;;14.40;9.05;;;;;;;2.58;84.73;98261.30;1743412;82;22077;-73
2021/04/17 03:11:59;;;;;;;19.12;10.00;;;;;;;2.57;84.78;98263.67;1743297;81;21097;-73
2021/04/17 03:14:25;;;;;;;20.92;12.55;;;;;;;2.58;84.94;98261.30;1743476;82;21097;-73
2021/04/17 03:16:52;;;;;;;49.25;21.97;;;;;;;2.51;84.93;98264.03;1743389;81;21152;-73
2021/04/17 03:19:18;;;;;;;42.17;31.50;;;;;;;2.45;85.06;98264.91;1743498;82;21518;-73
2021/04/17 03:21:44;;;;;;;14.93;11.35;;;;;;;2.40;85.35;98266.92;1743398;81;21212;-73
2021/04/17 03:24:10;;;;;;;14.65;9.75;;;;;;;2.36;85.52;98267.58;1743412;82;21049;-73
2021/04/17 03:26:36;;;;;;;22.60;14.43;;;;;;;2.33;85.56;98269.36;1743461;81;21079;-73
2021/04/17 03:29:02;;;;;;;14.75;10.05;;;;;;;2.29;85.48;98264.95;1743471;82;21145;-73
2021/04/17 03:31:28;;;;;;;14.60;9.35;;;;;;;2.30;85.44;98267.92;1743367;81;21029;-73
2021/04/17 03:33:54;;;;;;;20.27;12.63;;;;;;;2.29;85.40;98276.17;1743386;82;21249;-73
2021/04/17 03:36:21;;;;;;;37.93;18.50;;;;;;;2.21;85.51;98268.73;1743329;81;21029;-73
2021/04/17 03:38:47;;;;;;;34.50;15.25;;;;;;;2.23;85.41;98274.70;1743390;82;21423;-73
2021/04/17 03:41:13;;;;;;;21.82;13.83;;;;;;;2.23;85.50;98273.36;1743379;81;21119;-73
2021/04/17 03:43:39;;;;;;;24.37;14.10;;;;;;;2.23;85.56;98267.20;1743391;82;21049;-73
2021/04/17 03:46:05;;;;;;;28.17;13.72;;;;;;;2.24;85.88;98274.17;1743398;81;21127;-73
2021/04/17 03:48:31;;;;;;;19.87;12.43;;;;;;;2.19;85.81;98273.48;1743430;82;21545;-73
2021/04/17 03:50:58;;;;;;;15.03;10.13;;;;;;;2.18;86.96;98271.03;1743354;81;21073;-73
2021/04/17 03:53:24;;;;;;;14.98;9.28;;;;;;;2.25;86.87;98279.30;1759863;79;21087;-73
2021/04/17 03:55:50;;;;;;;31.02;15.40;;;;;;;2.30;86.77;98274.61;1785918;79;21012;-73
2021/04/17 03:58:16;;;;;;;20.68;12.37;;;;;;;2.31;86.21;98278.95;1785932;80;21198;-73
2021/04/17 04:00:42;;;;;;;15.38;9.03;;;;;;;2.26;86.25;98276.92;1785886;79;21157;-73
2021/04/17 04:03:08;;;;;;;13.78;7.78;;;;;;;2.17;86.12;98276.09;1785925;80;21444;-73
2021/04/17 04:05:34;;;;;;;43.25;18.00;;;;;;;2.11;86.16;98277.77;1785981;79;21558;-73
2021/04/17 04:08:00;;;;;;;155.27;80.38;;;;;;;2.13;86.43;98273.53;1785948;80;21015;-73
2021/04/17 04:10:27;;;;;;;66.02;32.55;;;;;;;2.15;86.28;98276.83;1786015;79;22282;-73
2021/04/17 04:12:53;;;;;;;45.80;23.67;;;;;;;2.08;86.76;98279.55;1786035;80;21546;-73
2021/04/17 04:15:19;;;;;;;48.05;24.72;;;;;;;2.12;86.45;98279.92;1786098;79;21130;-73
2021/04/17 04:17:46;;;;;;;21.57;13.78;;;;;;;2.14;86.45;98280.55;1786176;80;21137;-73
2021/04/17 04:20:12;;;;;;;25.52;15.50;;;;;;;2.14;86.62;98282.70;1786141;79;21136;-73
2021/04/17 04:22:39;;;;;;;15.50;9.78;;;;;;;2.20;86.69;98285.00;1786075;80;21308;-73
2021/04/17 04:25:06;;;;;;;16.90;10.63;;;;;;;2.18;86.73;98279.88;1786161;80;21138;-73
2021/04/17 04:27:32;;;;;;;18.98;13.65;;;;;;;2.18;87.56;98281.73;1786089;79;21118;-73
2021/04/17 04:29:59;;;;;;;17.15;10.93;;;;;;;2.21;86.92;98278.09;1761661;80;21464;-73
2021/04/17 04:32:25;;;;;;;29.20;15.28;;;;;;;2.22;86.87;98275.74;1786171;79;21491;-73
2021/04/17 04:34:51;;;;;;;38.88;19.17;;;;;;;2.25;86.72;98277.15;1786102;80;21263;-73
2021/04/17 04:37:17;;;;;;;22.22;12.53;;;;;;;2.22;86.72;98283.76;1786018;79;21044;-73
2021/04/17 04:39:43;;;;;;;30.57;17.40;;;;;;;2.22;86.76;98284.25;1786055;80;21122;-73
2021/04/17 04:42:10;;;;;;;44.93;21.75;;;;;;;2.28;86.79;98287.39;1786173;79;21412;-73
2021/04/17 04:44:36;;;;;;;69.32;34.27;;;;;;;2.30;86.73;98287.98;1786092;80;21066;-73
2021/04/17 04:47:03;;;;;;;30.85;20.55;;;;;;;2.36;86.78;98284.44;1786156;79;21479;-73
2021/04/17 04:49:29;;;;;;;19.23;10.93;;;;;;;2.36;86.96;98288.45;1785994;80;21499;-73
2021/04/17 04:51:55;;;;;;;21.42;9.80;;;;;;;2.42;87.36;98289.44;1785999;79;21495;-73
2021/04/17 04:54:22;;;;;;;16.15;11.08;;;;;;;2.49;87.22;98288.34;1785959;79;21126;-73
2021/04/17 04:56:48;;;;;;;17.82;10.63;;;;;;;2.56;86.77;98292.26;1786159;79;21004;-73
2021/04/17 04:59:14;;;;;;;23.60;15.63;;;;;;;2.57;87.07;98288.57;1786060;80;21257;-73
2021/04/17 05:01:40;;;;;;;39.30;22.05;;;;;;;2.64;86.62;98285.28;1786077;79;21043;-73
2021/04/17 05:04:06;;;;;;;25.52;17.82;;;;;;;2.65;86.49;98284.27;1786056;80;21058;-73
2021/04/17 05:06:32;;;;;;;49.67;35.50;;;;;;;2.67;86.39;98286.72;1786066;79;21130;-73
2021/04/17 05:08:59;;;;;;;22.67;14.35;;;;;;;2.73;86.17;98287.14;1786158;80;21448;-73
2021/04/17 05:11:25;;;;;;;19.32;12.70;;;;;;;2.82;86.16;98283.97;1786068;79;21196;-73
2021/04/17 05:13:52;;;;;;;27.40;14.73;;;;;;;2.94;86.21;98288.05;1786033;80;21063;-73
2021/04/17 05:16:18;;;;;;;24.63;15.95;;;;;;;2.96;85.80;98283.80;1786152;79;21432;-73
2021/04/17 05:18:44;;;;;;;25.08;15.48;;;;;;;3.03;85.85;98283.20;1786025;80;21102;-73
2021/04/17 05:21:10;;;;;;;26.93;15.65;;;;;;;3.03;85.71;98281.34;1786137;79;21126;-73
2021/04/17 05:23:36;;;;;;;24.25;15.72;;;;;;;3.08;85.80;98284.18;1786125;80;21138;-73
2021/04/17 05:26:02;;;;;;;20.77;11.97;;;;;;;3.14;85.85;98288.32;1786017;79;21101;-73
2021/04/17 05:28:29;;;;;;;34.30;19.75;;;;;;;3.26;85.94;98283.33;1786020;80;21043;-73
2021/04/17 05:30:55;;;;;;;19.50;11.83;;;;;;;3.39;85.84;98289.02;1786131;79;21471;-73
2021/04/17 05:33:21;;;;;;;20.97;13.00;;;;;;;3.38;85.34;98296.23;1786015;80;21256;-73
2021/04/17 05:35:47;;;;;;;26.42;16.20;;;;;;;3.37;85.18;98296.47;1786020;79;21194;-73
2021/04/17 05:38:14;;;;;;;40.80;31.77;;;;;;;3.38;85.26;98296.77;1785964;80;21129;-73
2021/04/17 05:40:40;;;;;;;39.92;26.05;;;;;;;3.37;84.80;98296.47;1786008;79;21058;-73
2021/04/17 05:43:06;;;;;;;34.00;21.77;;;;;;;3.31;84.67;98292.83;1786034;80;21134;-73
2021/04/17 05:45:32;;;;;;;32.63;19.57;;;;;;;3.39;84.92;98294.37;1786092;79;21197;-73
2021/04/17 05:47:58;;;;;;;30.97;18.45;;;;;;;3.47;84.74;98295.40;1786048;80;22073;-74
2021/04/17 05:50:24;;;;;;;28.40;18.75;;;;;;;3.53;84.84;98293.69;1785910;79;21097;-73
2021/04/17 05:52:50;;;;;;;31.27;21.23;;;;;;;3.63;84.89;98296.10;1786078;80;21150;-73
2021/04/17 05:55:16;;;;;;;18.70;13.48;;;;;;;3.66;84.81;98298.31;1785905;79;21027;-73
2021/04/17 05:57:43;;;;;;;21.33;13.85;;;;;;;3.71;84.82;98290.12;1786101;80;21108;-74
2021/04/17 06:00:10;;;;;;;21.20;13.08;;;;;;;3.75;85.02;98294.78;1786116;80;21399;-73
2021/04/17 06:02:36;;;;;;;24.12;15.10;;;;;;;3.80;84.94;98290.09;1785944;80;21075;-73
2021/04/17 06:05:03;;;;;;;24.02;16.30;;;;;;;3.87;84.85;98289.47;1786134;80;21499;-73
2021/04/17 06:07:29;;;;;;;26.90;17.02;;;;;;;3.90;84.70;98283.11;1786021;79;21011;-73
2021/04/17 06:09:55;;;;;;;26.27;17.27;;;;;;;3.89;84.22;98290.05;1786022;80;21094;-73
2021/04/17 06:12:21;;;;;;;22.60;14.53;;;;;;;3.94;84.38;98287.52;1785978;79;21246;-73
2021/04/17 06:14:48;;;;;;;26.15;15.80;;;;;;;4.01;84.24;98286.05;1785923;80;21460;-73
2021/04/17 06:17:14;;;;;;;21.12;13.18;;;;;;;4.06;84.20;98289.67;1786012;79;21082;-73
2021/04/17 06:19:40;;;;;;;25.88;16.87;;;;;;;4.07;83.56;98290.49;1785995;80;21083;-73
2021/04/17 06:22:06;;;;;;;22.52;14.68;;;;;;;4.16;83.84;98287.23;1786112;79;21467;-73
2021/04/17 06:24:32;;;;;;;16.65;11.65;;;;;;;4.20;83.76;98283.05;1786030;80;21506;-73
2021/04/17 06:26:58;;;;;;;13.35;8.23;;;;;;;4.30;83.84;98280.31;1785940;79;21479;-73
2021/04/17 06:29:25;;;;;;;14.70;9.18;;;;;;;4.28;83.56;98279.73;1786002;80;21078;-73
2021/04/17 06:31:51;;;;;;;13.03;8.53;;;;;;;4.14;83.42;98283.16;1786027;79;21134;-73
2021/04/17 06:34:17;;;;;;;15.20;8.23;;;;;;;4.12;83.17;98286.08;1785986;80;21058;-73
2021/04/17 06:36:43;;;;;;;13.70;9.23;;;;;;;4.04;83.14;98294.46;1785992;79;21184;-73
2021/04/17 06:39:10;;;;;;;11.80;7.65;;;;;;;3.99;82.91;98288.14;1786005;80;21428;-73
2021/04/17 06:41:36;;;;;;;12.85;8.05;;;;;;;3.99;83.17;98286.80;1785987;79;21082;-73
2021/04/17 06:44:05;;;;;;;14.55;9.83;;;;;;;4.09;82.46;98288.39;1786045;80;21118;-73
2021/04/17 06:46:32;;;;;;;14.20;8.83;;;;;;;4.01;82.45;98294.09;1786202;79;21106;-73
2021/04/17 06:49:02;;;;;;;10.90;7.00;;;;;;;4.05;82.56;98289.39;1786002;80;22126;-73
2021/04/17 06:51:28;;;;;;;9.30;6.10;;;;;;;4.06;82.50;98288.86;1785988;79;21019;-72
2021/04/17 06:53:54;;;;;;;10.00;5.72;;;;;;;4.14;82.80;98280.48;1785950;79;21133;-72
2021/04/17 06:56:25;;;;;;;11.83;7.30;;;;;;;4.24;82.73;98278.84;1786084;79;21040;-72
2021/04/17 06:58:51;;;;;;;8.90;5.67;;;;;;;4.35;82.79;98287.13;1786010;80;21290;-72
2021/04/17 07:01:17;;;;;;;10.82;7.37;;;;;;;4.45;82.62;98286.05;1786064;79;21268;-72
2021/04/17 07:03:43;;;;;;;12.53;8.08;;;;;;;4.45;82.40;98289.54;1786000;80;21138;-72
2021/04/17 07:06:10;;;;;;;13.68;9.68;;;;;;;4.52;82.22;98292.09;1785941;79;21043;-72
2021/04/17 07:08:40;;;;;;;11.75;7.17;;;;;;;4.53;82.31;98300.45;1785935;80;21134;-73
2021/04/17 07:11:07;;;;;;;11.95;8.13;;;;;;;4.56;82.12;98297.81;1786063;79;21404;-72
2021/04/17 07:13:34;;;;;;;11.63;7.00;;;;;;;4.56;82.02;98297.29;1786054;80;21191;-72
2021/04/17 07:16:09;;;;;;;10.45;6.58;;;;;;;4.59;81.75;98300.84;1785873;79;21067;-72
2021/04/17 07:18:37;;;;;;;7.85;5.55;;;;;;;4.55;81.50;98297.00;1785604;80;21118;-72
2021/04/17 07:21:22;;;;;;;7.08;5.05;;;;;;;4.55;81.47;98292.98;1761635;80;21091;-72
2021/04/17 07:23:49;;;;;;;5.92;4.55;;;;;;;4.52;81.58;98300.95;1786060;80;21059;-73
2021/04/17 07:26:19;;;;;;;10.50;6.55;;;;;;;4.56;81.71;98299.16;1785948;79;21205;-72
2021/04/17 07:29:00;;;;;;;7.17;5.00;;;;;;;4.58;81.64;98300.55;1785136;80;21508;-71
2021/04/17 07:31:28;;;;;;;7.58;4.83;;;;;;;4.60;81.61;98306.49;1785961;79;21039;-72
2021/04/17 07:33:55;;;;;;;8.20;5.12;;;;;;;4.61;81.56;98301.94;1786056;80;21103;-72
2021/04/17 07:36:22;;;;;;;11.45;6.47;;;;;;;4.70;81.40;98298.69;1736724;80;21086;-74
2021/04/17 07:38:49;;;;;;;13.28;6.87;;;;;;;4.68;81.32;98303.45;1785963;80;21190;-71
2021/04/17 07:41:20;;;;;;;8.93;6.83;;;;;;;4.76;81.37;98308.47;1785968;79;21075;-70
2021/04/17 07:44:02;;;;;;;10.15;6.33;;;;;;;4.85;81.20;98306.24;1785966;80;21477;-72
2021/04/17 07:46:30;;;;;;;;;;;;;;;4.94;81.20;98299.98;1787212;79;21087;-71
2021/04/17 07:49:18;;;;;;;12.65;6.78;;;;;;;5.01;80.93;98306.05;1786005;80;20234;-72
2021/04/17 07:52:10;;;;;;;7.70;5.55;;;;;;;5.08;80.54;98308.89;1786097;79;21203;-72
2021/04/17 07:54:41;;;;;;;9.45;5.75;;;;;;;5.17;80.03;98305.84;1750803;79;21031;-72
2021/04/17 07:57:12;;;;;;;8.85;5.60;;;;;;;5.25;79.85;98303.59;1782683;79;21412;-72
2021/04/17 07:59:39;;;;;;;9.00;6.00;;;;;;;5.30;79.08;98309.08;1786030;80;21067;-73
2021/04/17 08:02:05;;;;;;;16.02;6.92;;;;;;;5.34;79.54;98310.22;1785982;79;21087;-71
2021/04/17 08:04:31;;;;;;;11.45;7.87;;;;;;;5.36;79.34;98307.30;1761460;80;21196;-71
2021/04/17 08:06:59;;;;;;;7.50;6.00;;;;;;;5.37;79.61;98313.77;1785857;79;21027;-72
2021/04/17 08:09:27;;;;;;;7.45;5.67;;;;;;;5.34;79.34;98310.75;1785928;80;21039;-72
2021/04/17 08:11:59;;;;;;;565.73;87.05;;;;;;;5.29;79.39;98316.02;1785913;79;21098;-73
2021/04/17 08:14:27;;;;;;;172.05;23.50;;;;;;;5.23;79.26;98309.73;1785970;80;21436;-72
2021/04/17 08:16:53;;;;;;;36.70;15.93;;;;;;;5.16;79.05;98314.95;1786018;79;21264;-73
2021/04/17 08:19:20;;;;;;;86.05;15.60;;;;;;;5.06;79.09;98310.19;1785839;80;21193;-72
2021/04/17 08:21:48;;;;;;;292.37;40.73;;;;;;;5.05;79.20;98312.59;1785933;79;21417;-72
2021/04/17 08:24:27;;;;;;;41.37;13.10;;;;;;;5.08;79.42;98311.58;1785931;80;21086;-72
2021/04/17 08:26:55;;;;;;;72.58;18.50;;;;;;;5.07;79.38;98318.53;1786069;79;21055;-73
2021/04/17 08:29:44;;;;;;;1379.30;229.15;;;;;;;5.10;79.59;98318.87;1786063;80;21235;-72
2021/04/17 08:32:30;;;;;;;;;;;;;;;5.14;79.73;98322.44;1788488;79;21015;-73
2021/04/17 08:35:08;;;;;;;68.50;11.83;;;;;;;5.18;79.66;98319.55;1786071;80;20470;-72
2021/04/17 08:37:36;;;;;;;54.65;11.83;;;;;;;5.16;79.47;98319.80;1772187;80;21117;-73
2021/04/17 08:40:04;;;;;;;91.23;15.70;;;;;;;5.23;78.93;98319.67;1761697;80;21154;-73
2021/04/17 08:42:47;;;;;;;19.27;8.77;;;;;;;5.28;78.85;98319.23;1786266;79;22048;-73
2021/04/17 08:45:17;;;;;;;35.50;9.28;;;;;;;5.28;78.85;98319.23;1785790;79;21608;-72
2021/04/17 08:47:52;;;;;;;123.60;33.10;;;;;;;5.31;78.36;98321.45;1785971;80;21082;-72
2021/04/17 08:50:35;;;;;;;734.25;131.97;;;;;;;5.32;78.69;98319.59;1785894;79;21055;-73
2021/04/17 08:53:12;;;;;;;76.85;30.57;;;;;;;5.37;78.82;98321.83;1785920;80;21106;-73
2021/04/17 08:55:49;;;;;;;45.08;25.68;;;;;;;5.45;78.52;98315.27;1785830;79;21409;-72
2021/04/17 08:58:25;;;;;;;16.25;10.53;;;;;;;5.51;78.75;98320.22;1786046;80;21502;-72
2021/04/17 09:00:57;;;;;;;20.27;15.48;;;;;;;5.61;78.19;98319.06;1786130;79;21570;-73
2021/04/17 09:03:45;;;;;;;22.05;12.50;;;;;;;5.53;78.22;98319.44;1786106;80;21059;-73
2021/04/17 09:06:27;;;;;;;26.05;13.43;;;;;;;5.57;77.92;98318.73;1786294;79;27351;-72
2021/04/17 09:09:19;;;;;;;17.07;10.70;;;;;;;5.59;77.53;98317.15;1786077;80;21078;-73
2021/04/17 09:11:49;;;;;;;105.30;16.93;;;;;;;5.64;77.14;98311.88;1785997;79;21107;-72
2021/04/17 09:14:33;;;;;;;83.67;15.53;;;;;;;5.71;77.16;98321.12;1786032;80;21126;-72
2021/04/17 09:17:07;;;;;;;102.55;18.40;;;;;;;5.72;77.11;98311.47;1786067;79;21075;-72
2021/04/17 09:19:51;;;;;;;25.62;9.70;;;;;;;5.81;76.88;98315.92;1781993;80;21106;-72
2021/04/17 09:22:32;;;;;;;320.10;44.58;;;;;;;5.84;76.88;98314.11;1786217;79;21237;-72
2021/04/17 09:25:05;;;;;;;21.15;8.93;;;;;;;5.85;76.80;98311.71;1785969;80;21122;-73
2021/04/17 09:27:37;;;;;;;18.65;10.03;;;;;;;5.87;76.13;98308.24;1786086;79;21141;-72
2021/04/17 09:30:11;;;;;;;39.45;24.95;;;;;;;5.77;76.43;98312.91;1786126;80;21530;-72
2021/04/17 09:32:42;;;;;;;54.95;13.98;;;;;;;5.83;76.42;98310.61;1785159;80;21490;-72
2021/04/17 09:35:16;;;;;;;42.80;18.05;;;;;;;5.88;75.91;98303.95;1786164;80;22264;-73
2021/04/17 09:37:43;;;;;;;26.42;13.75;;;;;;;5.80;76.05;98311.08;1786043;80;21114;-72
2021/04/17 09:40:10;;;;;;;54.40;17.32;;;;;;;5.80;76.10;98301.66;1786109;80;21020;-72
2021/04/17 09:42:37;;;;;;;54.53;22.32;;;;;;;5.83;76.34;98304.42;1786117;80;21067;-73
2021/04/17 09:45:10;;;;;;;48.70;22.02;;;;;;;5.89;76.50;98307.46;1786134;80;21467;-72
2021/04/17 09:48:01;;;;;;;514.63;94.70;;;;;;;5.98;76.56;98306.04;1785887;80;21153;-71
2021/04/17 09:50:30;;;;;;;59.27;16.55;;;;;;;5.98;75.83;98302.53;1786053;79;21150;-71
2021/04/17 09:52:58;;;;;;;;;;;;;;;5.92;75.23;98307.03;1788651;80;21086;-72
2021/04/17 09:55:25;;;;;;;301.45;43.13;;;;;;;5.89;75.17;98299.39;1783735;78;20242;-72
2021/04/17 09:57:51;;;;;;;18.73;8.33;;;;;;;5.89;75.68;98303.43;1793287;80;21113;-72
2021/04/17 10:00:25;;;;;;;21.45;11.00;;;;;;;5.88;74.79;98293.20;1759628;80;21260;-72
2021/04/17 10:02:51;;;;;;;20.65;10.40;;;;;;;5.81;75.37;98300.63;1790139;80;21088;-73
2021/04/17 10:05:34;;;;;;;15.48;9.43;;;;;;;5.83;75.77;98291.78;1790225;80;21441;-73
2021/04/17 10:08:00;;;;;;;110.48;29.57;;;;;;;5.86;75.38;98301.23;1790185;80;21079;-73
2021/04/17 10:10:37;;;;;;;229.13;55.35;;;;;;;5.85;75.88;98303.11;1790159;80;21429;-72
2021/04/17 10:13:03;;;;;;;108.78;23.20;;;;;;;5.94;76.21;98300.34;1790257;80;22039;-71
2021/04/17 10:15:34;;;;;;;78.62;21.62;;;;;;;6.04;76.33;98301.04;1790198;80;21048;-72
2021/04/17 10:18:03;;;;;;;19.60;12.80;;;;;;;6.09;76.01;98301.67;1790183;80;21071;-72
2021/04/17 10:20:30;;;;;;;18.02;13.40;;;;;;;5.93;75.41;98297.37;1759589;80;21064;-73
2021/04/17 10:22:58;;;;;;;30.23;14.95;;;;;;;5.81;75.97;98293.06;1790213;80;21115;-73
2021/04/17 10:25:45;;;;;;;87.47;19.90;;;;;;;5.78;76.36;98298.94;1790366;80;21206;-72
2021/04/17 10:28:26;;;;;;;30.77;17.37;;;;;;;5.85;76.66;98293.70;1790146;80;21059;-72
2021/04/17 10:31:00;;;;;;;21.20;13.08;;;;;;;5.71;76.70;98303.11;1790131;80;21138;-73
2021/04/17 10:33:28;;;;;;;18.10;10.82;;;;;;;5.69;76.50;98300.39;1790300;80;21495;-72
2021/04/17 10:35:57;;;;;;;17.25;11.28;;;;;;;5.60;77.08;98298.08;1790364;80;21067;-72
2021/04/17 10:38:33;;;;;;;55.23;27.13;;;;;;;5.78;77.37;98290.88;1790394;80;21122;-72
2021/04/17 10:41:00;;;;;;;18.60;13.45;;;;;;;5.78;77.20;98293.56;1789162;80;21488;-73
2021/04/17 10:43:27;;;;;;;25.50;15.38;;;;;;;5.69;76.22;98298.52;1759790;80;21088;-73
2021/04/17 10:46:04;;;;;;;20.08;11.30;;;;;;;5.77;77.65;98294.09;1790124;80;21096;-73
2021/04/17 10:48:44;;;;;;;15.08;10.90;;;;;;;5.98;76.86;98297.16;1790206;80;21103;-71
2021/04/17 10:51:14;;;;;;;18.17;13.80;;;;;;;6.02;76.35;98292.94;1790122;80;21240;-71
2021/04/17 10:53:46;;;;;;;19.85;13.45;;;;;;;6.03;75.75;98295.91;1790045;80;21098;-72
2021/04/17 10:56:18;;;;;;;17.55;10.72;;;;;;;6.08;76.16;98295.47;1790001;79;21131;-71
2021/04/17 10:58:46;;;;;;;18.75;11.65;;;;;;;6.00;75.42;98297.22;1790152;80;21163;-72
2021/04/17 11:01:14;;;;;;;18.50;12.45;;;;;;;6.04;75.54;98294.84;1790206;80;21095;-72
2021/04/17 11:03:49;;;;;;;20.50;14.27;;;;;;;5.97;75.51;98299.03;1790398;80;21492;-72
2021/04/17 11:06:30;;;;;;;17.27;12.15;;;;;;;6.28;75.93;98294.16;1790052;80;21103;-72
2021/04/17 11:09:14;;;;;;;16.95;11.22;;;;;;;6.26;75.49;98293.07;1790166;80;21102;-71
2021/04/17 11:11:59;;;;;;;23.20;14.45;;;;;;;6.42;74.61;98290.91;1790213;80;21040;-73
2021/04/17 11:14:28;;;;;;;28.20;19.10;;;;;;;6.54;75.25;98289.45;1790168;80;21114;-72
2021/04/17 11:16:55;;;;;;;20.85;15.10;;;;;;;6.68;74.87;98289.40;1790322;80;22073;-72
2021/04/17 11:19:36;;;;;;;27.67;23.47;;;;;;;6.77;74.50;98293.30;1790147;80;21130;-73
2021/04/17 11:22:13;;;;;;;16.48;12.33;;;;;;;6.94;73.75;98295.95;1760081;80;21146;-73
2021/04/17 11:24:43;;;;;;;19.92;15.60;;;;;;;6.83;73.20;98287.42;1790133;80;21091;-71
2021/04/17 11:27:10;;;;;;;18.85;14.58;;;;;;;6.80;73.03;98290.62;1782919;80;21016;-72
2021/04/17 11:29:38;;;;;;;17.07;12.68;;;;;;;6.96;73.88;98293.81;1790142;80;21197;-72
2021/04/17 11:32:05;;;;;;;19.57;13.68;;;;;;;6.67;71.50;98294.50;1790129;80;21504;-72
2021/04/17 11:34:31;;;;;;;16.30;11.65;;;;;;;6.94;72.88;98289.75;1790090;80;21110;-72
2021/04/17 11:36:57;;;;;;;15.88;11.80;;;;;;;7.13;73.29;98291.59;1790133;80;21036;-72
2021/04/17 11:39:23;;;;;;;16.10;10.72;;;;;;;7.19;72.39;98296.00;1790175;80;21134;-73